Menu Close Menu
Station Historical Data
Daily Summary for January 22, 2017 Units:  English    Metric   Both
« Previous Day
Next Day »
Daily Weekly Monthly Yearly Custom
  High: Low: Average:
Temperature: 59.1 °F 32.0 °F 57.1 °F
Dew Point: 57.0 °F 15.0 °F 54 °F
Humidity: 95% 49% 90%
Wind Speed: 7.1mph 0.0mph 2mph
Wind Gust: 7.1mph - -
Wind- - West
Pressure: 29.65 in 29.19 in -
Precipitation: 0.06 in    
Historical Graphs
 
 
Tabular Data for January 22, 2017
Time Temperature Dew Point Pressure Wind Wind Speed Wind Gust Humidity Rainfall Rate (Hourly) solar Conditions
02:00 32.0 °F 15.0 °F 29.57 in Calm     49% 0.00 in WeatherDisplay:10.37 W/m2 BKN
02:45 32.0 °F 15.0 °F 29.63 in Calm     49% 0.00 in WeatherDisplay:10.37 W/m2 BKN
03:00 32.0 °F 15.0 °F 29.65 in Calm     49% 0.00 in WeatherDisplay:10.37 W/m2 BKN
03:45 32.0 °F 15.0 °F 29.65 in Calm     49% 0.00 in WeatherDisplay:10.37 W/m2 BKN
04:00 32.0 °F 15.0 °F 29.65 in Calm     49% 0.00 in WeatherDisplay:10.37 W/m2 BKN
05:45 32.0 °F 15.0 °F 29.59 in Calm     49% 0.00 in WeatherDisplay:10.37 W/m2 BKN
08:08 55.4 °F 54.0 °F 29.58 in Calm     95% 0.00 in WeatherDisplay:10.37 W/m2 OVC
08:13 55.4 °F 54.0 °F 29.58 in Calm     95% 0.00 in WeatherDisplay:10.37 W/m2 OVC
08:18 55.4 °F 54.0 °F 29.58 in Calm     95% 0.00 in WeatherDisplay:10.37 W/m2 OVC
08:23 55.4 °F 54.0 °F 29.59 in Calm     95% 0.00 in WeatherDisplay:10.37 W/m2 OVC
08:28 55.4 °F 54.0 °F 29.59 in North 3.5 mph   95% 0.00 in WeatherDisplay:10.37 W/m2 OVC
08:33 55.4 °F 54.0 °F 29.59 in Calm     95% 0.00 in WeatherDisplay:10.37 W/m2 OVC
08:39 55.4 °F 54.0 °F 29.59 in Calm     95% 0.00 in WeatherDisplay:10.37 W/m2 OVC
08:44 55.4 °F 54.0 °F 29.59 in Calm     95% 0.00 in WeatherDisplay:10.37 W/m2 OVC
08:49 55.4 °F 54.0 °F 29.59 in Calm     95% 0.00 in WeatherDisplay:10.37 W/m2 OVC
08:54 55.4 °F 54.0 °F 29.60 in Calm     95% 0.00 in WeatherDisplay:10.37 W/m2 OVC
08:59 55.4 °F 54.0 °F 29.60 in Calm     95% 0.00 in WeatherDisplay:10.37 W/m2 OVC
09:04 55.4 °F 54.0 °F 29.60 in Calm     95% 0.00 in WeatherDisplay:10.37 W/m2 OVC
09:09 55.4 °F 54.0 °F 29.59 in Calm     95% 0.00 in WeatherDisplay:10.37 W/m2 OVC
09:14 55.4 °F 54.0 °F 29.58 in Calm     95% 0.00 in WeatherDisplay:10.37 W/m2 OVC
09:19 55.4 °F 54.0 °F 29.57 in Calm     95% 0.00 in WeatherDisplay:10.37 W/m2 OVC
09:24 55.4 °F 54.0 °F 29.54 in Calm     95% 0.00 in WeatherDisplay:10.37 W/m2 OVC
09:29 55.4 °F 53.7 °F 29.57 in NW 2.3 mph 2.3 mph 94% 0.00 in WeatherDisplay:10.37 W/m2 OVC
09:35 55.4 °F 54.0 °F 29.58 in WNW 2.3 mph 2.3 mph 95% 0.00 in WeatherDisplay:10.37 W/m2 OVC
09:40 56.9 °F 54.9 °F 29.57 in NW 2.3 mph   93% 0.00 in WeatherDisplay:10.37 W/m2 OVC
09:41 56.9 °F 54.9 °F 29.57 in NW 2.3 mph   93% 0.00 in WeatherDisplay:10.37 W/m2 OVC
09:46 56.9 °F 54.9 °F 29.57 in West 2.3 mph 2.3 mph 93% 0.00 in WeatherDisplay:10.37 W/m2 OVC
09:51 56.8 °F 54.8 °F 29.57 in NW 2.3 mph 2.3 mph 93% 0.00 in WeatherDisplay:10.37 W/m2 OVC
09:56 57.0 °F 55.0 °F 29.56 in West 1.2 mph 1.2 mph 93% 0.00 in WeatherDisplay:10.37 W/m2 OVC
10:01 57.0 °F 55.0 °F 29.56 in NW 1.2 mph   93% 0.00 in WeatherDisplay:10.37 W/m2 OVC
10:06 57.2 °F 55.2 °F 29.54 in NW 2.0 mph   93% 0.00 in WeatherDisplay:10.37 W/m2 OVC
10:11 57.2 °F 55.2 °F 29.53 in WNW 2.3 mph 2.3 mph 93% 0.01 in WeatherDisplay:10.37 W/m2 RA
10:16 57.4 °F 55.4 °F 29.54 in West 2.3 mph 2.3 mph 93% 0.01 in WeatherDisplay:10.37 W/m2 OVC
10:21 57.4 °F 55.4 °F 29.54 in WNW 2.3 mph 2.3 mph 93% 0.01 in WeatherDisplay:10.37 W/m2 OVC
10:27 57.5 °F 55.5 °F 29.56 in NW 2.3 mph 2.3 mph 93% 0.01 in WeatherDisplay:10.37 W/m2 OVC
10:32 57.5 °F 55.5 °F 29.55 in NW 2.3 mph 2.3 mph 93% 0.01 in WeatherDisplay:10.37 W/m2 OVC
10:37 57.8 °F 55.7 °F 29.56 in WNW 2.3 mph 2.3 mph 93% 0.01 in WeatherDisplay:10.37 W/m2 OVC
10:42 57.7 °F 55.7 °F 29.56 in NNE 4.1 mph 4.1 mph 93% 0.01 in WeatherDisplay:10.37 W/m2 OVC
10:47 57.9 °F 55.8 °F 29.55 in NW 4.6 mph 4.6 mph 93% 0.01 in WeatherDisplay:10.37 W/m2 OVC
10:52 57.8 °F 55.8 °F 29.55 in NW 4.6 mph 4.6 mph 93% 0.01 in WeatherDisplay:10.37 W/m2 OVC
10:57 58.0 °F 55.7 °F 29.56 in WNW 2.3 mph 2.3 mph 92% 0.01 in WeatherDisplay:10.37 W/m2 OVC
11:02 57.9 °F 55.6 °F 29.56 in WNW 2.3 mph   92% 0.01 in WeatherDisplay:10.37 W/m2 OVC
11:07 58.1 °F 55.7 °F 29.56 in NW 2.3 mph 2.3 mph 92% 0.00 in WeatherDisplay:10.37 W/m2 OVC
11:12 58.0 °F 55.7 °F 29.55 in WNW 2.3 mph 2.3 mph 92% 0.01 in WeatherDisplay:10.37 W/m2 RA
11:17 58.2 °F 55.9 °F 29.55 in NW 2.3 mph 2.3 mph 92% 0.01 in WeatherDisplay:10.37 W/m2 OVC
11:23 58.2 °F 55.8 °F 29.55 in WNW 2.3 mph 2.3 mph 92% 0.01 in WeatherDisplay:10.37 W/m2 OVC
11:28 58.1 °F 55.8 °F 29.54 in WNW 2.3 mph 2.3 mph 92% 0.01 in WeatherDisplay:10.37 W/m2 OVC
11:33 58.1 °F 55.8 °F 29.53 in WNW 2.3 mph 2.3 mph 92% 0.01 in WeatherDisplay:10.37 W/m2 OVC
11:38 58.2 °F 55.9 °F 29.51 in West 2.3 mph 2.3 mph 92% 0.01 in WeatherDisplay:10.37 W/m2 OVC
11:43 58.4 °F 56.1 °F 29.50 in WNW 1.2 mph 1.2 mph 92% 0.01 in WeatherDisplay:10.37 W/m2 OVC
11:48 58.4 °F 56.1 °F 29.51 in WNW 3.5 mph 3.5 mph 92% 0.01 in WeatherDisplay:10.37 W/m2 OVC
11:53 58.4 °F 56.1 °F 29.50 in West 3.5 mph 3.5 mph 92% 0.01 in WeatherDisplay:10.37 W/m2 OVC
11:58 58.4 °F 56.1 °F 29.50 in West 3.5 mph 3.5 mph 92% 0.01 in WeatherDisplay:10.37 W/m2 OVC
12:03 58.3 °F 56.0 °F 29.51 in WSW 3.1 mph 3.1 mph 92% 0.01 in WeatherDisplay:10.37 W/m2 OVC
12:08 58.2 °F 55.9 °F 29.51 in NW 3.1 mph 3.1 mph 92% 0.00 in WeatherDisplay:10.37 W/m2 OVC
12:14 58.2 °F 55.9 °F 29.51 in North 2.0 mph 2.0 mph 92% 0.01 in WeatherDisplay:10.37 W/m2 RA
12:19 58.0 °F 55.7 °F 29.51 in WNW 2.3 mph   92% 0.01 in WeatherDisplay:10.37 W/m2 OVC
12:24 58.2 °F 55.9 °F 29.50 in WNW 2.0 mph   92% 0.01 in WeatherDisplay:10.37 W/m2 OVC
12:29 58.1 °F 55.8 °F 29.47 in West 4.6 mph 4.6 mph 92% 0.01 in WeatherDisplay:10.37 W/m2 OVC
12:34 58.1 °F 55.8 °F 29.46 in WNW 5.1 mph 5.1 mph 92% 0.01 in WeatherDisplay:10.37 W/m2 OVC
12:39 58.0 °F 56.0 °F 29.45 in West 5.1 mph 5.1 mph 93% 0.01 in WeatherDisplay:10.37 W/m2 OVC
12:44 58.0 °F 56.0 °F 29.46 in WNW 1.2 mph 1.2 mph 93% 0.01 in WeatherDisplay:10.37 W/m2 OVC
12:49 57.9 °F 55.9 °F 29.46 in WSW 3.5 mph 3.5 mph 93% 0.01 in WeatherDisplay:10.37 W/m2 OVC
12:54 58.0 °F 56.0 °F 29.46 in WNW 3.5 mph 3.5 mph 93% 0.01 in WeatherDisplay:10.37 W/m2 OVC
12:59 58.0 °F 55.9 °F 29.45 in WNW 3.5 mph 3.5 mph 93% 0.01 in WeatherDisplay:10.37 W/m2 OVC
13:05 58.0 °F 56.0 °F 29.45 in WNW 3.1 mph 3.1 mph 93% 0.01 in WeatherDisplay:10.37 W/m2 OVC
13:10 58.0 °F 55.9 °F 29.44 in WNW 3.1 mph 3.1 mph 93% 0.01 in WeatherDisplay:10.37 W/m2 RA
13:15 55.4 °F 54.0 °F 29.58 in West 2.3 mph 2.3 mph 95% 0.01 in WeatherDisplay:10.37 W/m2 OVC
13:20 58.0 °F 56.0 °F 29.42 in NW 4.6 mph 4.6 mph 93% 0.01 in WeatherDisplay:10.37 W/m2 OVC
13:25 58.3 °F 56.3 °F 29.42 in NW 3.5 mph 3.5 mph 93% 0.01 in WeatherDisplay:10.37 W/m2 OVC
13:30 58.1 °F 56.1 °F 29.40 in WNW 3.5 mph 3.5 mph 93% 0.01 in WeatherDisplay:10.37 W/m2 OVC
13:35 58.4 °F 56.4 °F 29.39 in WNW 4.6 mph 4.6 mph 93% 0.01 in WeatherDisplay:10.37 W/m2 OVC
13:40 58.3 °F 56.3 °F 29.38 in West 4.6 mph 4.6 mph 93% 0.01 in WeatherDisplay:10.37 W/m2 OVC
13:45 58.8 °F 56.8 °F 29.38 in WNW 3.1 mph 3.1 mph 93% 0.01 in WeatherDisplay:10.37 W/m2 OVC
13:50 58.7 °F 56.7 °F 29.37 in WNW 3.5 mph 3.5 mph 93% 0.01 in WeatherDisplay:10.37 W/m2 OVC
13:55 59.0 °F 56.7 °F 29.37 in WNW 5.1 mph 5.1 mph 92% 0.01 in WeatherDisplay:10.37 W/m2 OVC
14:01 58.9 °F 56.6 °F 29.37 in WNW 5.1 mph 5.1 mph 92% 0.01 in WeatherDisplay:10.37 W/m2 OVC
14:06 59.1 °F 56.8 °F 29.36 in NW 5.1 mph 5.1 mph 92% 0.00 in WeatherDisplay:10.37 W/m2 OVC
14:11 59.0 °F 56.7 °F 29.36 in WNW 5.1 mph 5.1 mph 92% 0.00 in WeatherDisplay:10.37 W/m2 OVC
14:16 59.0 °F 56.7 °F 29.34 in WNW 5.1 mph 5.1 mph 92% 0.00 in WeatherDisplay:10.37 W/m2 OVC
14:21 58.9 °F 56.5 °F 29.35 in West 5.1 mph 5.1 mph 92% 0.00 in WeatherDisplay:10.37 W/m2 OVC
14:26 59.1 °F 56.8 °F 29.35 in West 5.1 mph 5.1 mph 92% 0.00 in WeatherDisplay:10.37 W/m2 OVC
14:31 58.9 °F 56.6 °F 29.35 in West 5.1 mph   92% 0.00 in WeatherDisplay:10.37 W/m2 OVC
14:36 59.1 °F 56.8 °F 29.35 in WSW 4.6 mph 4.6 mph 92% 0.00 in WeatherDisplay:10.37 W/m2 OVC
14:41 59.0 °F 56.7 °F 29.33 in West 4.6 mph 4.6 mph 92% 0.00 in WeatherDisplay:10.37 W/m2 OVC
14:46 59.1 °F 56.8 °F 29.33 in WNW 2.0 mph 2.0 mph 92% 0.00 in WeatherDisplay:10.37 W/m2 OVC
14:51 59.0 °F 56.7 °F 29.33 in West 6.1 mph 6.1 mph 92% 0.00 in WeatherDisplay:10.37 W/m2 OVC
14:56 59.1 °F 56.8 °F 29.32 in West 6.1 mph 6.1 mph 92% 0.00 in WeatherDisplay:10.37 W/m2 OVC
15:02 59.0 °F 56.7 °F 29.32 in NW 6.1 mph   92% 0.00 in WeatherDisplay:10.37 W/m2 OVC
15:07 58.9 °F 56.6 °F 29.30 in WNW 6.1 mph 6.1 mph 92% 0.00 in WeatherDisplay:10.37 W/m2 OVC
15:12 58.8 °F 56.8 °F 29.29 in West 6.1 mph 6.1 mph 93% 0.00 in WeatherDisplay:10.37 W/m2 OVC
15:17 58.8 °F 56.8 °F 29.28 in SSE 5.1 mph 5.1 mph 93% 0.00 in WeatherDisplay:10.37 W/m2 OVC
15:22 58.8 °F 56.8 °F 29.27 in West 5.1 mph 5.1 mph 93% 0.00 in WeatherDisplay:10.37 W/m2 OVC
15:27 58.8 °F 56.8 °F 29.26 in WSW 5.1 mph 5.1 mph 93% 0.01 in WeatherDisplay:10.37 W/m2 OVC
15:32 58.7 °F 56.7 °F 29.26 in West 5.1 mph 5.1 mph 93% 0.01 in WeatherDisplay:10.37 W/m2 OVC
15:37 58.6 °F 56.6 °F 29.24 in West 7.1 mph 7.1 mph 93% 0.01 in WeatherDisplay:10.37 W/m2 OVC
15:42 58.5 °F 56.5 °F 29.23 in West 7.1 mph 7.1 mph 93% 0.01 in WeatherDisplay:10.37 W/m2 OVC
15:47 58.5 °F 56.5 °F 29.22 in West 4.6 mph 4.6 mph 93% 0.01 in WeatherDisplay:10.37 W/m2 OVC
15:53 58.2 °F 56.2 °F 29.21 in WSW 4.6 mph 4.6 mph 93% 0.01 in WeatherDisplay:10.37 W/m2 OVC
15:58 58.4 °F 57.0 °F 29.23 in West 3.5 mph 3.5 mph 95% 0.01 in WeatherDisplay:10.37 W/m2 OVC
16:03 59.0 °F 55.4 °F 29.19 in West 3.5 mph 3.5 mph 88% 0.01 in WeatherDisplay:10.37 W/m2 OVC
16:08 59.0 °F 55.4 °F 29.19 in West 3.5 mph 3.5 mph 88% 0.01 in WeatherDisplay:10.37 W/m2 OVC
16:13 59.0 °F 55.4 °F 29.19 in West 3.5 mph 3.5 mph 88% 0.01 in WeatherDisplay:10.37 W/m2 OVC
16:18 59.0 °F 55.4 °F 29.19 in West 3.5 mph 3.5 mph 88% 0.01 in WeatherDisplay:10.37 W/m2 OVC
16:23 59.0 °F 55.4 °F 29.19 in West 3.5 mph 3.5 mph 88% 0.01 in WeatherDisplay:10.37 W/m2 OVC
16:28 59.0 °F 55.4 °F 29.19 in West 3.5 mph 3.5 mph 88% 0.00 in WeatherDisplay:10.37 W/m2 OVC
16:33 59.0 °F 55.4 °F 29.19 in West 3.5 mph 3.5 mph 88% 0.00 in WeatherDisplay:10.37 W/m2 OVC
16:38 59.0 °F 55.4 °F 29.19 in West 3.5 mph 3.5 mph 88% 0.00 in WeatherDisplay:10.37 W/m2 OVC
16:44 59.0 °F 55.4 °F 29.19 in NNE 3.5 mph   88% 0.00 in WeatherDisplay:10.37 W/m2 OVC
17:07 59.0 °F 55.4 °F 29.19 in Calm     88% 0.00 in WeatherDisplay:10.37 W/m2 OVC
17:13 59.0 °F 55.4 °F 29.19 in Calm     88% 0.00 in WeatherDisplay:10.37 W/m2 OVC
17:18 59.0 °F 55.4 °F 29.19 in Calm     88% 0.00 in WeatherDisplay:10.37 W/m2 OVC
17:23 59.0 °F 55.4 °F 29.19 in Calm     88% 0.00 in WeatherDisplay:10.37 W/m2 OVC
17:24 59.0 °F 55.4 °F 29.19 in Calm     88% 0.00 in WeatherDisplay:10.37 W/m2 OVC
17:29 59.0 °F 55.4 °F 29.19 in Calm     88% 0.00 in WeatherDisplay:10.37 W/m2 OVC
17:34 59.0 °F 55.4 °F 29.19 in Calm     88% 0.00 in WeatherDisplay:10.37 W/m2 OVC
17:39 59.0 °F 55.4 °F 29.19 in Calm     88% 0.00 in WeatherDisplay:10.37 W/m2 OVC
17:45 59.0 °F 55.4 °F 29.19 in Calm     88% 0.00 in WeatherDisplay:10.37 W/m2 OVC
17:50 59.0 °F 55.4 °F 29.19 in Calm     88% 0.00 in WeatherDisplay:10.37 W/m2 OVC
17:55 59.0 °F 55.4 °F 29.19 in Calm     88% 0.00 in WeatherDisplay:10.37 W/m2 OVC
18:00 59.0 °F 55.4 °F 29.19 in Calm     88% 0.00 in WeatherDisplay:10.37 W/m2 OVC
18:05 59.0 °F 55.4 °F 29.19 in Calm     88% 0.00 in WeatherDisplay:10.37 W/m2 OVC
18:10 59.0 °F 55.4 °F 29.19 in Calm     88% 0.00 in WeatherDisplay:10.37 W/m2 OVC
18:16 59.0 °F 55.4 °F 29.19 in Calm     88% 0.00 in WeatherDisplay:10.37 W/m2 OVC
18:21 59.0 °F 55.4 °F 29.19 in Calm     88% 0.00 in WeatherDisplay:10.37 W/m2
18:26 59.0 °F 55.4 °F 29.19 in Calm     88% 0.00 in WeatherDisplay:10.37 W/m2
18:31 59.0 °F 55.4 °F 29.19 in Calm     88% 0.00 in WeatherDisplay:10.37 W/m2
18:36 59.0 °F 55.4 °F 29.19 in Calm     88% 0.00 in WeatherDisplay:10.37 W/m2
18:41 59.0 °F 55.4 °F 29.19 in Calm     88% 0.00 in WeatherDisplay:10.37 W/m2 OVC
18:46 59.0 °F 55.4 °F 29.19 in Calm     88% 0.00 in WeatherDisplay:10.37 W/m2 OVC
18:51 59.0 °F 55.4 °F 29.19 in Calm     88% 0.00 in WeatherDisplay:10.37 W/m2 OVC
18:56 59.0 °F 55.4 °F 29.19 in Calm     88% 0.00 in WeatherDisplay:10.37 W/m2 OVC
19:01 59.0 °F 55.4 °F 29.19 in Calm     88% 0.00 in WeatherDisplay:10.37 W/m2 OVC
19:07 59.0 °F 55.4 °F 29.19 in Calm     88% 0.00 in WeatherDisplay:10.37 W/m2 OVC
19:12 59.0 °F 55.4 °F 29.19 in Calm     88% 0.00 in WeatherDisplay:10.37 W/m2 OVC
19:17 59.0 °F 55.4 °F 29.19 in Calm     88% 0.00 in WeatherDisplay:10.37 W/m2 OVC
19:22 59.0 °F 55.4 °F 29.19 in Calm     88% 0.00 in WeatherDisplay:10.37 W/m2 OVC
19:27 59.0 °F 55.4 °F 29.19 in Calm     88% 0.00 in WeatherDisplay:10.37 W/m2 OVC
19:32 59.0 °F 55.4 °F 29.19 in Calm     88% 0.00 in WeatherDisplay:10.37 W/m2 OVC
19:37 59.0 °F 55.4 °F 29.19 in Calm     88% 0.00 in WeatherDisplay:10.37 W/m2 OVC
19:42 59.0 °F 55.4 °F 29.19 in Calm     88% 0.00 in WeatherDisplay:10.37 W/m2 OVC
19:47 59.0 °F 55.4 °F 29.19 in Calm     88% 0.00 in WeatherDisplay:10.37 W/m2 OVC
19:52 59.0 °F 55.4 °F 29.19 in Calm     88% 0.00 in WeatherDisplay:10.37 W/m2 OVC
19:58 59.0 °F 55.4 °F 29.19 in Calm     88% 0.00 in WeatherDisplay:10.37 W/m2 OVC
20:03 59.0 °F 55.4 °F 29.19 in Calm     88% 0.00 in WeatherDisplay:10.37 W/m2 OVC
20:08 59.0 °F 55.4 °F 29.19 in Calm     88% 0.00 in WeatherDisplay:10.37 W/m2 OVC
20:13 59.0 °F 55.4 °F 29.19 in Calm     88% 0.00 in WeatherDisplay:10.37 W/m2 OVC
20:18 59.0 °F 55.4 °F 29.19 in Calm     88% 0.00 in WeatherDisplay:10.37 W/m2 OVC
20:23 59.0 °F 55.4 °F 29.19 in Calm     88% 0.00 in WeatherDisplay:10.37 W/m2 OVC
20:28 59.0 °F 55.4 °F 29.19 in Calm     88% 0.00 in WeatherDisplay:10.37 W/m2 OVC
20:33 59.0 °F 55.4 °F 29.19 in Calm     88% 0.00 in WeatherDisplay:10.37 W/m2 OVC
20:38 59.0 °F 55.4 °F 29.19 in Calm     88% 0.00 in WeatherDisplay:10.37 W/m2 OVC
20:39 59.0 °F 55.4 °F 29.19 in Calm     88% 0.00 in WeatherDisplay:10.37 W/m2 OVC
20:43 59.0 °F 55.4 °F 29.19 in Calm     88% 0.00 in WeatherDisplay:10.37 W/m2 OVC
20:49 59.0 °F 55.4 °F 29.19 in Calm     88% 0.00 in WeatherDisplay:10.37 W/m2 OVC
Piedmont Bend
Compliments of Weather Underground - 4 mb